Terminal Aerodrome Forecast
Issued by NWS North Platte, NE

Home | Current Version | Previous Version | Text Only | Print | Product List | Glossary On
Versions: 1 2 3 4 5 6 7 8 9 10 11 12 13 14
000
FTUS43 KLBF 200456 AAA
TAFLBF
TAF AMD
KLBF 200456Z 2005/2024 14014G25KT P6SM SCT120 OVC200
     FM200700 13008KT P6SM BKN120
     FM201100 26007KT P6SM SCT120
     FM201600 31014G22KT P6SM SCT200
     FM202300 28008KT P6SM SCT200=

USA.gov is the U.S. government's official web portal to all federal, state and local government web resources and services.